createdAt,value
2022-11-24T00:01:15.853Z,20.02
2022-11-24T00:03:44.099Z,20.01
2022-11-24T00:06:13.917Z,20.03
2022-11-24T00:08:45.286Z,20.03
2022-11-24T00:11:15.817Z,20.02
2022-11-24T00:13:44.167Z,20.03
2022-11-24T00:16:15.065Z,20.02
2022-11-24T00:18:45.004Z,20.02
2022-11-24T00:21:13.391Z,20.01
2022-11-24T00:23:41.618Z,20.02
2022-11-24T00:26:13.712Z,20.01
2022-11-24T00:28:43.065Z,20.02
2022-11-24T00:31:18.188Z,20.03
2022-11-24T00:33:46.584Z,20.03
2022-11-24T00:36:15.392Z,20.00
2022-11-24T00:38:43.809Z,19.94
2022-11-24T00:41:13.815Z,20.03
2022-11-24T00:43:41.880Z,20.03
2022-11-24T00:46:10.155Z,20.02
2022-11-24T00:48:38.504Z,20.02
2022-11-24T00:51:09.104Z,20.03
2022-11-24T00:53:37.527Z,20.02
2022-11-24T00:56:05.960Z,20.02
2022-11-24T00:58:36.204Z,20.02
2022-11-24T01:01:08.334Z,20.01
2022-11-24T01:03:36.491Z,20.03
2022-11-24T01:06:05.796Z,20.03
2022-11-24T01:08:34.078Z,20.03
2022-11-24T01:11:14.221Z,20.03
2022-11-24T01:13:45.137Z,20.02
2022-11-24T01:16:18.027Z,19.98
2022-11-24T01:18:46.278Z,20.02
2022-11-24T01:21:14.908Z,19.99
2022-11-24T01:23:43.341Z,20.01
2022-11-24T01:26:14.413Z,19.98
2022-11-24T01:28:47.413Z,20.00
2022-11-24T01:31:17.012Z,20.01
2022-11-24T01:33:45.203Z,20.01
2022-11-24T01:36:13.318Z,20.00
2022-11-24T01:38:41.412Z,20.00
2022-11-24T01:41:13.598Z,20.01
2022-11-24T01:43:44.400Z,19.94
2022-11-24T01:46:18.926Z,20.01
2022-11-24T01:48:51.568Z,20.01
2022-11-24T01:51:23.779Z,20.00
2022-11-24T01:53:58.942Z,20.01
2022-11-24T01:56:28.669Z,20.00
2022-11-24T01:59:01.907Z,19.93
2022-11-24T02:01:31.568Z,19.99
2022-11-24T02:04:01.054Z,19.99
2022-11-24T02:06:32.181Z,19.99
2022-11-24T02:09:03.769Z,19.99
2022-11-24T02:11:36.167Z,19.91
2022-11-24T02:14:07.784Z,20.01
2022-11-24T02:16:38.002Z,20.00
2022-11-24T02:19:13.123Z,20.00
2022-11-24T02:21:41.278Z,20.01
2022-11-24T02:24:16.009Z,20.01
2022-11-24T02:26:48.117Z,20.01
2022-11-24T02:29:16.555Z,20.01
2022-11-24T02:31:49.910Z,19.85
2022-11-24T02:34:18.255Z,20.01
2022-11-24T02:36:46.287Z,20.00
2022-11-24T02:39:15.775Z,19.98
2022-11-24T02:41:50.640Z,20.00
2022-11-24T02:44:21.275Z,19.99
2022-11-24T02:46:49.327Z,19.97
2022-11-24T02:49:17.381Z,20.00
2022-11-24T02:51:46.309Z,19.99
2022-11-24T02:54:15.728Z,19.99
2022-11-24T02:56:45.212Z,19.99
2022-11-24T02:59:13.549Z,19.99
2022-11-24T03:01:41.955Z,19.99
2022-11-24T03:04:10.066Z,19.98
2022-11-24T03:06:38.480Z,19.99
2022-11-24T03:09:06.659Z,19.98
2022-11-24T03:11:34.795Z,19.96
2022-11-24T03:14:04.320Z,19.98
2022-11-24T03:16:33.115Z,19.98
2022-11-24T03:19:01.559Z,19.73
2022-11-24T03:21:30.057Z,19.81
2022-11-24T03:23:58.216Z,19.99
2022-11-24T03:26:26.907Z,19.99
2022-11-24T03:28:56.388Z,19.99
2022-11-24T03:31:26.579Z,19.92
2022-11-24T03:33:54.709Z,19.98
2022-11-24T03:36:22.751Z,20.00
2022-11-24T03:38:51.012Z,20.00
2022-11-24T03:41:19.148Z,19.98
2022-11-24T03:43:47.238Z,19.99
2022-11-24T03:46:15.338Z,19.99
2022-11-24T03:48:45.131Z,19.99
2022-11-24T03:51:13.216Z,19.99
2022-11-24T03:53:41.372Z,20.00
2022-11-24T03:56:09.547Z,20.00
2022-11-24T03:58:37.739Z,19.99
2022-11-24T04:01:05.791Z,20.00
2022-11-24T04:03:33.883Z,20.01
2022-11-24T04:06:03.575Z,20.00
2022-11-24T04:08:31.600Z,19.86
2022-11-24T04:10:59.680Z,20.01
2022-11-24T04:13:27.750Z,19.79
2022-11-24T04:15:56.052Z,19.99
2022-11-24T04:18:24.086Z,20.00
2022-11-24T04:20:52.376Z,20.00
2022-11-24T04:23:21.707Z,20.00
2022-11-24T04:25:49.828Z,19.98
2022-11-24T04:28:17.748Z,19.99
2022-11-24T04:30:45.675Z,19.99
2022-11-24T04:33:14.181Z,19.97
2022-11-24T04:35:42.221Z,19.98
2022-11-24T04:38:10.404Z,19.99
2022-11-24T04:40:40.083Z,20.00
2022-11-24T04:43:07.960Z,19.96
2022-11-24T04:45:35.908Z,20.00
2022-11-24T04:48:04.002Z,19.98
2022-11-24T04:50:32.172Z,19.99
2022-11-24T04:53:00.083Z,19.98
2022-11-24T04:55:28.029Z,19.99
2022-11-24T04:57:57.385Z,20.00
2022-11-24T05:00:25.369Z,20.00
2022-11-24T05:02:53.595Z,20.01
2022-11-24T05:05:21.611Z,20.00
2022-11-24T05:07:49.685Z,20.01
2022-11-24T05:10:36.433Z,20.00
2022-11-24T05:13:08.037Z,20.00
2022-11-24T05:15:37.774Z,19.99
2022-11-24T05:18:07.099Z,19.99
2022-11-24T05:20:35.250Z,19.99
2022-11-24T05:23:04.213Z,19.99
2022-11-24T05:25:32.856Z,19.98
2022-11-24T05:28:02.287Z,19.97
2022-11-24T05:30:32.220Z,19.96
2022-11-24T05:33:00.254Z,19.98
2022-11-24T05:35:28.256Z,19.96
2022-11-24T05:37:56.202Z,19.97
2022-11-24T05:40:24.150Z,19.98
2022-11-24T05:42:52.073Z,19.95
2022-11-24T05:45:22.411Z,19.96
2022-11-24T05:47:51.965Z,19.76
2022-11-24T05:50:21.758Z,19.98
2022-11-24T05:52:50.068Z,19.98
2022-11-24T05:55:20.040Z,19.98
2022-11-24T05:57:48.047Z,19.99
2022-11-24T06:00:18.295Z,19.98
2022-11-24T06:02:46.431Z,19.98
2022-11-24T06:05:15.880Z,19.99
2022-11-24T06:07:43.894Z,19.98
2022-11-24T06:10:11.957Z,19.97
2022-11-24T06:12:39.861Z,19.98
2022-11-24T06:15:08.756Z,19.98
2022-11-24T06:17:37.277Z,19.98
2022-11-24T06:20:06.159Z,19.98
2022-11-24T06:22:35.987Z,19.99
2022-11-24T06:25:04.239Z,19.99
2022-11-24T06:27:32.418Z,19.99
2022-11-24T06:30:00.848Z,19.99
2022-11-24T06:32:28.673Z,19.94
2022-11-24T06:34:56.561Z,19.96
2022-11-24T06:37:24.526Z,19.98
2022-11-24T06:39:53.751Z,19.97
2022-11-24T06:42:21.809Z,19.96
2022-11-24T06:44:49.934Z,19.99
2022-11-24T06:47:17.982Z,19.79
2022-11-24T06:49:45.811Z,19.97
2022-11-24T06:52:13.692Z,20.00
2022-11-24T06:54:41.571Z,19.99
2022-11-24T06:57:10.947Z,20.00
2022-11-24T06:59:38.795Z,20.00
2022-11-24T07:02:06.688Z,20.00
2022-11-24T07:04:34.824Z,19.99
2022-11-24T07:07:03.889Z,20.00
2022-11-24T07:09:31.733Z,19.99
2022-11-24T07:11:59.615Z,20.00
2022-11-24T07:14:29.010Z,20.00
2022-11-24T07:16:56.987Z,19.99
2022-11-24T07:19:25.401Z,20.00
2022-11-24T07:21:53.759Z,20.00
2022-11-24T07:24:21.977Z,19.98
2022-11-24T07:26:49.808Z,19.97
2022-11-24T07:29:18.147Z,20.00
2022-11-24T07:31:47.457Z,20.01
2022-11-24T07:34:15.652Z,20.00
2022-11-24T07:36:45.180Z,20.00
2022-11-24T07:39:13.152Z,20.00
2022-11-24T07:41:41.007Z,20.00
2022-11-24T07:44:09.146Z,19.99
2022-11-24T07:46:37.028Z,20.00
2022-11-24T07:49:06.584Z,19.98
2022-11-24T07:51:34.515Z,19.97
2022-11-24T07:54:02.351Z,19.99
2022-11-24T07:56:30.246Z,19.97
2022-11-24T07:58:58.116Z,19.98
2022-11-24T08:01:25.981Z,19.98
2022-11-24T08:03:54.028Z,19.98
2022-11-24T08:06:27.287Z,19.99
2022-11-24T08:08:57.235Z,19.98
2022-11-24T08:11:25.696Z,19.76
2022-11-24T08:13:53.580Z,19.99
2022-11-24T08:16:21.999Z,19.99
2022-11-24T08:18:54.892Z,19.98
2022-11-24T08:21:24.647Z,19.97
2022-11-24T08:23:56.134Z,19.97
2022-11-24T08:26:25.265Z,19.96
2022-11-24T08:28:56.243Z,19.96
2022-11-24T08:31:24.983Z,19.89
2022-11-24T08:33:52.939Z,19.97
2022-11-24T08:36:20.808Z,19.97
2022-11-24T08:38:54.726Z,19.98
2022-11-24T08:41:22.657Z,19.97
2022-11-24T08:43:50.555Z,19.96
2022-11-24T08:46:20.343Z,19.97
2022-11-24T08:48:50.159Z,19.96
2022-11-24T08:51:21.903Z,19.97
2022-11-24T08:53:55.422Z,19.96
2022-11-24T08:56:23.524Z,19.93
2022-11-24T08:58:51.504Z,19.93
2022-11-24T09:01:19.738Z,19.94
2022-11-24T09:03:51.026Z,19.96
2022-11-24T09:06:22.853Z,19.95
2022-11-24T09:08:52.691Z,19.96
2022-11-24T09:11:20.728Z,19.96
2022-11-24T09:13:48.572Z,19.96
2022-11-24T09:16:20.053Z,19.97
2022-11-24T09:18:48.585Z,19.98
2022-11-24T09:21:18.629Z,19.97
2022-11-24T09:23:48.494Z,19.96
2022-11-24T09:26:20.550Z,19.97
2022-11-24T09:28:48.891Z,19.97
2022-11-24T09:31:18.893Z,19.96
2022-11-24T09:33:47.357Z,19.96
2022-11-24T09:36:15.791Z,19.90
2022-11-24T09:38:43.988Z,19.96
2022-11-24T09:41:28.102Z,19.93
2022-11-24T09:44:08.503Z,19.81
2022-11-24T09:46:45.189Z,19.93
2022-11-24T09:49:25.768Z,19.96
2022-11-24T09:51:57.368Z,19.96
2022-11-24T09:54:29.351Z,19.94
2022-11-24T09:57:02.044Z,19.95
2022-11-24T09:59:29.944Z,19.94
2022-11-24T10:01:57.948Z,19.95
2022-11-24T10:04:28.639Z,19.91
2022-11-24T10:07:04.757Z,19.95
2022-11-24T10:09:54.451Z,19.94
2022-11-24T10:12:36.523Z,19.93
2022-11-24T10:15:34.810Z,19.94
2022-11-24T10:18:29.283Z,19.93
2022-11-24T10:21:11.317Z,19.91
2022-11-24T10:23:56.239Z,19.93
2022-11-24T10:26:35.034Z,19.93
2022-11-24T10:29:16.786Z,19.90
2022-11-24T10:31:46.582Z,19.93
2022-11-24T10:34:17.883Z,19.93
2022-11-24T10:36:53.100Z,19.94
2022-11-24T10:39:24.901Z,19.93
2022-11-24T10:41:58.791Z,19.90
2022-11-24T10:44:28.026Z,19.94
2022-11-24T10:46:56.090Z,19.94
2022-11-24T10:49:29.121Z,19.94
2022-11-24T10:52:09.777Z,19.94
2022-11-24T10:54:41.448Z,19.94
2022-11-24T10:57:09.435Z,19.94
2022-11-24T10:59:40.680Z,19.94
2022-11-24T11:02:33.847Z,19.96
2022-11-24T11:05:28.281Z,19.94
2022-11-24T11:08:19.774Z,19.94
2022-11-24T11:10:49.487Z,19.94
2022-11-24T11:13:25.910Z,19.94
2022-11-24T11:15:55.483Z,19.91
2022-11-24T11:18:26.593Z,19.93
2022-11-24T11:20:56.600Z,19.91
2022-11-24T11:23:28.706Z,19.94
2022-11-24T11:26:19.377Z,19.94
2022-11-24T11:34:53.126Z,19.91
2022-11-24T11:37:23.247Z,19.91
2022-11-24T11:39:52.854Z,19.91
2022-11-24T11:43:00.063Z,19.91
2022-11-24T11:45:18.262Z,19.91
2022-11-24T11:47:53.806Z,19.91
2022-11-24T11:50:26.922Z,19.90
2022-11-24T11:53:11.405Z,19.91
2022-11-24T11:55:50.216Z,19.91
2022-11-24T11:58:48.091Z,19.91
2022-11-24T12:01:31.075Z,19.92
2022-11-24T12:04:14.601Z,19.92
2022-11-24T12:07:00.731Z,19.91
2022-11-24T12:09:46.368Z,19.92
2022-11-24T12:12:51.622Z,19.92
2022-11-24T12:15:30.358Z,19.90
2022-11-24T12:18:21.488Z,19.92
2022-11-24T12:21:11.451Z,19.89
2022-11-24T12:23:53.165Z,19.91
2022-11-24T12:26:33.038Z,19.91
2022-11-24T12:29:17.327Z,19.91
2022-11-24T12:31:53.594Z,19.92
2022-11-24T12:34:32.730Z,19.91
2022-11-24T12:37:28.578Z,19.92
2022-11-24T12:40:03.198Z,19.91
2022-11-24T12:42:39.756Z,19.91
2022-11-24T12:45:17.400Z,19.91
2022-11-24T12:48:14.910Z,19.46
2022-11-24T12:50:47.048Z,19.92
2022-11-24T12:53:21.071Z,19.91
2022-11-24T12:55:49.565Z,19.93
2022-11-24T12:58:27.144Z,19.92
2022-11-24T13:01:09.307Z,19.92
2022-11-24T13:03:51.122Z,19.92
2022-11-24T13:06:22.032Z,19.91
2022-11-24T13:08:51.553Z,19.92
2022-11-24T13:11:42.398Z,19.93
2022-11-24T13:14:19.419Z,19.92
2022-11-24T13:17:28.155Z,19.92
2022-11-24T13:19:47.531Z,19.91
2022-11-24T13:22:18.127Z,19.92
2022-11-24T13:24:52.476Z,19.91
2022-11-24T13:27:29.627Z,19.91
2022-11-24T13:29:57.562Z,19.92
2022-11-24T13:32:51.654Z,19.91
2022-11-24T13:35:19.636Z,19.90
2022-11-24T13:37:53.268Z,19.92
2022-11-24T13:48:16.097Z,19.87
2022-11-24T13:51:39.318Z,19.89
2022-11-24T14:04:33.347Z,19.87
2022-11-24T14:11:18.886Z,19.85
2022-11-24T14:20:49.765Z,19.81
2022-11-24T14:23:53.527Z,19.82
2022-11-24T14:27:00.345Z,19.85
2022-11-24T14:30:23.257Z,19.85
2022-11-24T14:36:23.010Z,19.86
2022-11-24T14:45:35.535Z,19.86
2022-11-24T14:56:02.089Z,19.85
2022-11-24T15:02:14.545Z,19.82
2022-11-24T15:05:16.369Z,19.85
2022-11-24T15:24:23.359Z,19.85
2022-11-24T15:26:51.280Z,19.85
2022-11-24T15:29:21.057Z,19.85
2022-11-24T15:31:52.645Z,19.85
2022-11-24T15:34:21.020Z,19.86
2022-11-24T15:36:48.925Z,19.87
2022-11-24T15:39:16.883Z,19.88
2022-11-24T15:41:44.743Z,19.88
2022-11-24T15:44:12.640Z,19.89
2022-11-24T15:46:41.955Z,19.88
2022-11-24T15:49:09.884Z,19.92
2022-11-24T15:51:41.544Z,19.91
2022-11-24T15:54:14.971Z,19.89
2022-11-24T15:56:45.534Z,19.84
2022-11-24T15:59:20.172Z,19.92
2022-11-24T16:01:51.004Z,19.91
2022-11-24T16:04:19.077Z,19.92
2022-11-24T16:06:46.889Z,19.42
2022-11-24T16:09:17.412Z,19.92
2022-11-24T16:11:45.499Z,19.92
2022-11-24T16:14:13.487Z,19.93
2022-11-24T16:16:41.943Z,19.93
2022-11-24T16:19:12.328Z,19.93
2022-11-24T16:21:40.166Z,19.93
2022-11-24T16:24:08.727Z,19.93
2022-11-24T16:26:36.601Z,19.93
2022-11-24T16:29:04.570Z,19.92
2022-11-24T16:31:33.040Z,19.94
2022-11-24T16:34:01.056Z,19.94
2022-11-24T16:36:30.314Z,19.91
2022-11-24T16:39:00.470Z,19.93
2022-11-24T16:41:28.303Z,19.92
2022-11-24T16:43:59.016Z,19.94
2022-11-24T16:46:26.982Z,19.94
2022-11-24T16:48:56.094Z,19.93
2022-11-24T16:51:27.772Z,19.94
2022-11-24T16:54:00.554Z,19.92
2022-11-24T16:56:29.479Z,19.93
2022-11-24T16:58:57.562Z,19.93
2022-11-24T17:01:26.064Z,19.94
2022-11-24T17:03:54.122Z,19.94
2022-11-24T17:06:21.985Z,19.92
2022-11-24T17:08:50.074Z,19.91
2022-11-24T17:11:20.745Z,19.93
2022-11-24T17:13:49.244Z,19.91
2022-11-24T17:16:19.573Z,19.94
2022-11-24T17:18:47.974Z,19.92
2022-11-24T17:21:17.940Z,19.94
2022-11-24T17:23:46.193Z,19.94
2022-11-24T17:26:15.894Z,19.95
2022-11-24T17:28:45.576Z,19.95
2022-11-24T17:31:20.438Z,19.94
2022-11-24T17:33:48.486Z,19.93
2022-11-24T17:36:16.577Z,19.93
2022-11-24T17:38:44.437Z,19.96
2022-11-24T17:41:12.690Z,19.95
2022-11-24T17:43:41.060Z,19.95
2022-11-24T17:46:11.466Z,19.94
2022-11-24T17:48:41.088Z,19.97
2022-11-24T17:51:12.777Z,19.95
2022-11-24T17:53:42.226Z,19.95
2022-11-24T17:56:13.794Z,19.96
2022-11-24T17:58:43.227Z,19.93
2022-11-24T18:01:13.868Z,19.95
2022-11-24T18:03:42.298Z,19.96
2022-11-24T18:06:12.448Z,19.96
2022-11-24T18:08:43.038Z,19.95
2022-11-24T18:11:12.993Z,19.97
2022-11-24T18:13:56.736Z,19.96
2022-11-24T18:16:30.576Z,19.83
2022-11-24T18:19:08.507Z,19.97
2022-11-24T18:21:38.407Z,19.96
2022-11-24T18:24:06.636Z,19.97
2022-11-24T18:26:34.489Z,19.96
2022-11-24T18:29:02.517Z,19.97
2022-11-24T18:31:34.249Z,20.00
2022-11-24T18:34:02.885Z,20.00
2022-11-24T18:36:31.356Z,20.00
2022-11-24T18:39:01.110Z,20.00
2022-11-24T18:41:28.988Z,20.00
2022-11-24T18:43:56.872Z,19.97
2022-11-24T18:46:25.896Z,19.99
2022-11-24T18:48:56.199Z,19.99
2022-11-24T18:51:24.076Z,19.99
2022-11-24T18:53:54.471Z,19.99
2022-11-24T18:56:22.942Z,19.98
2022-11-24T18:58:53.706Z,19.99
2022-11-24T19:01:24.116Z,19.99
2022-11-24T19:03:54.499Z,19.99
2022-11-24T19:06:28.827Z,19.99
2022-11-24T19:08:57.565Z,19.96
2022-11-24T19:11:28.236Z,19.99
2022-11-24T19:13:57.125Z,19.98
2022-11-24T19:16:26.312Z,19.55
2022-11-24T19:18:57.267Z,20.00
2022-11-24T19:21:27.000Z,19.81
2022-11-24T19:23:58.548Z,19.98
2022-11-24T19:26:29.359Z,20.00
2022-11-24T19:28:57.264Z,20.00
2022-11-24T19:31:25.180Z,20.00
2022-11-24T19:33:54.733Z,19.97
2022-11-24T19:36:23.644Z,20.01
2022-11-24T19:38:54.921Z,19.99
2022-11-24T19:41:25.390Z,20.01
2022-11-24T19:43:54.802Z,20.00
2022-11-24T19:46:26.203Z,19.87
2022-11-24T19:48:56.295Z,20.01
2022-11-24T19:51:26.276Z,20.00
2022-11-24T19:53:55.591Z,20.00
2022-11-24T19:56:25.636Z,20.01
2022-11-24T19:58:54.534Z,20.00
2022-11-24T20:01:25.793Z,20.00
2022-11-24T20:03:59.098Z,20.00
2022-11-24T20:06:28.459Z,20.00
2022-11-24T20:08:58.692Z,19.99
2022-11-24T20:11:26.823Z,20.00
2022-11-24T20:13:56.028Z,19.99
2022-11-24T20:16:28.252Z,19.99
2022-11-24T20:18:57.446Z,20.00
2022-11-24T20:21:28.627Z,19.99
2022-11-24T20:24:00.419Z,20.01
2022-11-24T20:26:30.217Z,20.01
2022-11-24T20:28:59.391Z,20.01
2022-11-24T20:31:29.257Z,19.99
2022-11-24T20:33:57.583Z,20.01
2022-11-24T20:36:26.969Z,20.02
2022-11-24T20:38:55.201Z,20.02
2022-11-24T20:41:27.296Z,20.01
2022-11-24T20:43:57.538Z,20.00
2022-11-24T20:46:27.462Z,20.02
2022-11-24T20:48:56.365Z,20.01
2022-11-24T20:51:27.028Z,20.01
2022-11-24T20:53:57.317Z,20.00
2022-11-24T20:56:29.433Z,20.03
2022-11-24T20:58:57.682Z,20.07
2022-11-24T21:01:27.692Z,20.09
2022-11-24T21:03:57.405Z,20.10
2022-11-24T21:06:25.794Z,20.12
2022-11-24T21:08:54.655Z,20.13
2022-11-24T21:11:25.030Z,20.15
2022-11-24T21:13:54.573Z,20.15
2022-11-24T21:16:24.215Z,20.17
2022-11-24T21:18:53.985Z,20.19
2022-11-24T21:21:24.012Z,20.18
2022-11-24T21:23:52.199Z,20.20
2022-11-24T21:26:20.546Z,20.22
2022-11-24T21:28:48.747Z,20.20
2022-11-24T21:31:20.775Z,20.17
2022-11-24T21:33:50.628Z,20.17
2022-11-24T21:36:20.116Z,20.17
2022-11-24T21:38:51.999Z,20.14
2022-11-24T21:41:20.868Z,20.15
2022-11-24T21:43:49.985Z,20.12
2022-11-24T21:46:19.512Z,20.12
2022-11-24T21:48:47.458Z,20.11
2022-11-24T21:51:17.404Z,19.96
2022-11-24T21:53:46.608Z,20.09
2022-11-24T21:56:17.099Z,20.09
2022-11-24T21:58:47.354Z,20.10
2022-11-24T22:01:16.483Z,20.09
2022-11-24T22:03:46.122Z,20.09
2022-11-24T22:06:14.985Z,20.07
2022-11-24T22:08:42.863Z,20.09
2022-11-24T22:11:13.733Z,20.08
2022-11-24T22:13:41.764Z,20.08
2022-11-24T22:16:11.842Z,20.04
2022-11-24T22:18:41.334Z,20.06
2022-11-24T22:21:13.850Z,20.07
2022-11-24T22:23:41.728Z,20.07
2022-11-24T22:26:13.604Z,20.06
2022-11-24T22:28:41.924Z,20.07
2022-11-24T22:31:12.081Z,20.07
2022-11-24T22:33:40.214Z,20.07
2022-11-24T22:36:08.810Z,20.06
2022-11-24T22:38:38.967Z,20.07
2022-11-24T22:41:08.405Z,20.07
2022-11-24T22:43:37.693Z,20.00
2022-11-24T22:46:06.338Z,20.07
2022-11-24T22:48:34.466Z,20.06
2022-11-24T22:51:06.061Z,20.06
2022-11-24T22:53:34.571Z,20.06
2022-11-24T22:56:04.959Z,20.07
2022-11-24T22:58:33.432Z,20.06
2022-11-24T23:01:05.458Z,19.98
2022-11-24T23:03:33.759Z,20.06
2022-11-24T23:06:01.982Z,20.07
2022-11-24T23:08:29.947Z,20.05
2022-11-24T23:11:04.168Z,20.05
2022-11-24T23:13:32.450Z,20.05
2022-11-24T23:16:04.258Z,20.05
2022-11-24T23:18:32.640Z,19.98
2022-11-24T23:21:06.603Z,20.02
2022-11-24T23:23:35.015Z,20.04
2022-11-24T23:26:05.817Z,19.92
2022-11-24T23:28:34.157Z,20.03
2022-11-24T23:31:02.940Z,20.04
2022-11-24T23:33:31.673Z,20.05
2022-11-24T23:36:02.811Z,20.04
2022-11-24T23:38:32.838Z,20.03
2022-11-24T23:41:04.127Z,19.97
2022-11-24T23:43:34.100Z,20.01
2022-11-24T23:46:06.998Z,20.04
2022-11-24T23:48:35.624Z,20.06
2022-11-24T23:51:08.060Z,20.04
2022-11-24T23:53:37.263Z,20.03
2022-11-24T23:56:06.120Z,20.04
2022-11-24T23:58:35.773Z,19.81
